Time;durP1;ratioP1;P1;durP2;ratioP2;P2;SDS_P1;SDS_P2;PMS_P1;PMS_P2;Temp;Humidity;BMP_temperature;BMP_pressure;BME280_temperature;BME280_humidity;BME280_pressure;Samples;Min_cycle;Max_cycle;Signal;HPM_P1;HPM_P2
2022/10/23 00:02:23;;;;;;;1.93;1.50;;;19.00;75.90;20.10;100658.00;;;;5089765;28;20161;-54
2022/10/23 00:04:51;;;;;;;1.93;1.73;;;19.00;75.90;20.10;100660.00;;;;5089292;28;20677;-54
2022/10/23 00:07:17;;;;;;;1.80;1.57;;;19.00;75.80;20.10;100650.00;;;;5089755;28;20172;-53
2022/10/23 00:09:43;;;;;;;1.80;1.70;;;19.00;75.90;20.10;100642.00;;;;5088520;28;20194;-54
2022/10/23 00:12:09;;;;;;;2.47;1.83;;;19.00;75.90;20.10;100643.00;;;;5089386;28;20200;-53
2022/10/23 00:14:35;;;;;;;2.80;1.80;;;19.00;75.90;20.10;100652.00;;;;5089501;28;20181;-53
2022/10/23 00:17:00;;;;;;;1.87;1.70;;;19.00;76.00;20.10;100652.00;;;;5089266;28;20174;-54
2022/10/23 00:19:26;;;;;;;1.77;1.67;;;19.00;76.00;20.10;100653.00;;;;5089358;28;20274;-54
2022/10/23 00:21:52;;;;;;;1.60;1.50;;;19.00;76.00;20.10;100650.00;;;;5089611;28;20236;-54
2022/10/23 00:24:17;;;;;;;2.87;1.70;;;18.90;75.90;20.10;100653.00;;;;5088713;28;20173;-54
2022/10/23 00:26:43;;;;;;;1.53;1.43;;;18.90;75.90;20.10;100662.00;;;;5088876;28;20173;-54
2022/10/23 00:29:09;;;;;;;1.70;1.60;;;18.90;75.90;20.00;100669.00;;;;5089451;28;20197;-54
2022/10/23 00:31:35;;;;;;;1.80;1.70;;;18.90;75.90;20.00;100655.00;;;;5088183;28;20168;-54
2022/10/23 00:34:01;;;;;;;1.80;1.70;;;18.90;75.90;20.00;100649.00;;;;5089120;28;20665;-53
2022/10/23 00:36:26;;;;;;;1.63;1.53;;;18.90;75.90;20.00;100649.00;;;;5088961;28;20218;-53
2022/10/23 00:38:52;;;;;;;1.53;1.40;;;18.90;76.00;20.00;100653.00;;;;5088518;28;20208;-54
2022/10/23 00:41:22;;;;;;;1.80;1.70;;;18.90;76.00;20.00;100655.00;;;;5089001;28;20169;-54
2022/10/23 00:44:30;;;;;;;1.73;1.63;;;18.90;76.00;20.00;100659.00;;;;5088913;28;20702;-53
2022/10/23 00:46:57;;;;;;;1.80;1.70;;;18.90;76.10;20.00;100650.00;;;;5015183;28;20226;-55
2022/10/23 00:49:24;;;;;;;1.60;1.50;;;18.90;76.10;20.00;100655.00;;;;5088807;28;20545;-54
2022/10/23 00:51:52;;;;;;;2.23;1.80;;;18.80;75.90;20.00;100655.00;;;;5089274;28;20173;-53
2022/10/23 00:54:21;;;;;;;1.73;1.63;;;18.90;76.00;20.00;100648.00;;;;5087494;28;20303;-54
2022/10/23 00:56:47;;;;;;;1.77;1.67;;;18.90;76.00;19.90;100635.00;;;;5087586;28;20543;-55
2022/10/23 00:59:13;;;;;;;1.80;1.70;;;18.90;76.10;19.90;100646.00;;;;5087388;28;20204;-54
2022/10/23 01:01:38;;;;;;;1.77;1.67;;;18.80;76.00;19.90;100641.00;;;;5088709;28;20249;-53
2022/10/23 01:04:05;;;;;;;1.80;1.70;;;18.80;76.00;19.90;100637.00;;;;5087039;28;20186;-54
2022/10/23 01:06:44;;;;;;;1.67;1.57;;;18.80;76.00;19.90;100627.00;;;;5087428;28;20164;-54
2022/10/23 01:09:22;;;;;;;1.63;1.53;;;18.80;76.00;19.90;100641.00;;;;5087378;28;20261;-53
2022/10/23 01:12:25;;;;;;;2.57;1.70;;;18.80;76.00;19.90;100617.00;;;;5087309;28;20169;-53
2022/10/23 01:15:07;;;;;;;2.17;1.83;;;18.90;76.20;19.90;100633.00;;;;5087128;28;20185;-54
2022/10/23 01:17:38;;;;;;;1.70;1.60;;;18.80;76.00;19.90;100631.00;;;;5087073;28;20541;-55
2022/10/23 01:20:12;;;;;;;2.27;1.70;;;18.80;76.00;19.80;100631.00;;;;5088338;28;20197;-53
2022/10/23 01:23:11;;;;;;;1.33;1.23;;;18.80;76.00;19.90;100635.00;;;;5088198;28;20164;-53
2022/10/23 01:26:18;;;;;;;1.80;1.70;;;18.80;76.00;19.80;100645.00;;;;5087203;28;20162;-54
2022/10/23 01:28:52;;;;;;;1.73;1.63;;;18.80;76.00;19.80;100640.00;;;;5087737;28;20736;-53
2022/10/23 01:31:30;;;;;;;1.60;1.50;;;18.80;76.00;19.80;100636.00;;;;5086534;28;20185;-53
2022/10/23 01:34:14;;;;;;;1.70;1.60;;;18.80;76.00;19.80;100640.00;;;;5089607;28;20538;-55
2022/10/23 01:36:41;;;;;;;1.77;1.67;;;18.80;76.00;19.80;100634.00;;;;5095525;28;20169;-53
2022/10/23 01:39:32;;;;;;;2.00;1.90;;;18.70;76.00;19.80;100619.00;;;;5095683;28;20197;-53
2022/10/23 01:42:28;;;;;;;1.80;1.70;;;18.80;76.80;19.80;100614.00;;;;5091917;28;20146;-55
2022/10/23 01:45:02;;;;;;;1.70;1.60;;;18.80;76.00;19.80;100602.00;;;;5070787;28;20192;-55
2022/10/23 01:47:30;;;;;;;1.70;1.60;;;18.80;76.00;19.80;100593.00;;;;5074239;28;20152;-54
2022/10/23 01:49:55;;;;;;;1.80;1.70;;;18.70;76.00;19.80;100593.00;;;;5073613;28;20197;-54
2022/10/23 01:52:21;;;;;;;1.73;1.63;;;18.70;76.00;19.80;100599.00;;;;5090725;28;20676;-54
2022/10/23 01:54:47;;;;;;;1.60;1.50;;;18.70;76.00;19.80;100508.00;;;;5090258;28;20230;-55
2022/10/23 01:57:15;;;;;;;1.93;1.77;;;18.70;76.00;19.80;100594.00;;;;5090477;28;20277;-55
2022/10/23 01:59:48;;;;;;;1.77;1.67;;;18.70;76.00;19.80;100593.00;;;;5090226;28;20278;-53
2022/10/23 02:02:14;;;;;;;1.80;1.70;;;18.70;76.00;19.80;100592.00;;;;5090349;28;20198;-54
2022/10/23 02:04:47;;;;;;;1.87;1.73;;;18.70;75.90;19.80;100572.00;;;;5089974;28;20289;-54
2022/10/23 02:07:13;;;;;;;1.60;1.50;;;18.70;76.00;19.80;100569.00;;;;5090684;28;20188;-54
2022/10/23 02:09:38;;;;;;;1.70;1.60;;;18.70;75.90;19.80;100573.00;;;;5092064;28;20783;-54
2022/10/23 02:12:16;;;;;;;1.60;1.50;;;18.70;76.00;19.80;100573.00;;;;5090072;28;20360;-53
2022/10/23 02:15:11;;;;;;;1.60;1.50;;;18.70;75.90;19.70;100582.00;;;;5073485;28;20705;-53
2022/10/23 02:17:59;;;;;;;1.70;1.60;;;18.70;76.00;19.70;100564.00;;;;5067307;28;20215;-54
2022/10/23 02:20:44;;;;;;;1.70;1.60;;;18.70;76.00;19.70;100554.00;;;;5089681;28;20204;-53
2022/10/23 02:23:30;;;;;;;1.70;1.60;;;18.70;76.00;19.70;100554.00;;;;5089801;28;20552;-54
2022/10/23 02:26:05;;;;;;;1.70;1.60;;;18.70;76.00;19.70;100559.00;;;;5090013;28;20232;-54
2022/10/23 02:28:38;;;;;;;1.90;1.80;;;18.70;76.00;19.70;100559.00;;;;5089704;28;20217;-55
2022/10/23 02:31:04;;;;;;;2.00;1.80;;;18.60;75.80;19.70;100567.00;;;;5089875;28;20165;-53
2022/10/23 02:33:30;;;;;;;1.80;1.70;;;18.70;76.00;19.70;100556.00;;;;5089420;28;20184;-53
2022/10/23 02:35:55;;;;;;;1.77;1.67;;;18.70;75.90;19.70;100556.00;;;;5089577;28;20247;-54
2022/10/23 02:38:39;;;;;;;1.87;1.77;;;18.60;75.80;19.70;100544.00;;;;5089446;28;20262;-54
2022/10/23 02:41:40;;;;;;;1.80;1.70;;;18.60;75.90;19.70;100542.00;;;;5089564;28;20207;-53
2022/10/23 02:44:42;;;;;;;2.00;1.80;;;18.60;76.00;19.60;100527.00;;;;5089353;28;20157;-54
2022/10/23 02:47:44;;;;;;;1.90;1.80;;;18.60;76.10;19.70;100520.00;;;;5089648;28;20156;-55
2022/10/23 02:50:47;;;;;;;1.90;1.80;;;18.60;76.10;19.70;100522.00;;;;5088946;28;20184;-54
2022/10/23 02:53:35;;;;;;;1.80;1.70;;;18.60;76.00;19.70;100522.00;;;;5090324;28;20153;-53
2022/10/23 02:56:29;;;;;;;2.17;1.70;;;18.60;75.90;19.70;100519.00;;;;5089099;28;20173;-54
2022/10/23 02:59:35;;;;;;;1.77;1.60;;;18.60;76.00;19.60;100509.00;;;;5088928;28;20224;-55
2022/10/23 03:02:08;;;;;;;1.70;1.60;;;18.60;76.10;19.60;100511.00;;;;5089351;28;20142;-53
2022/10/23 03:04:34;;;;;;;1.80;1.70;;;18.60;76.00;19.60;100504.00;;;;5088547;28;20168;-54
2022/10/23 03:06:59;;;;;;;2.13;1.50;;;18.60;76.10;19.60;100506.00;;;;5089046;28;20184;-53
2022/10/23 03:09:25;;;;;;;1.90;1.80;;;18.60;76.00;19.60;100502.00;;;;5088927;28;20235;-53
2022/10/23 03:11:51;;;;;;;1.50;1.40;;;18.60;76.10;19.60;100503.00;;;;5090413;28;20196;-54
2022/10/23 03:14:17;;;;;;;1.80;1.70;;;18.60;76.00;19.60;100503.00;;;;5089840;28;20259;-54
2022/10/23 03:16:42;;;;;;;1.70;1.60;;;18.60;76.00;19.60;100499.00;;;;5090130;28;20803;-54
2022/10/23 03:19:12;;;;;;;2.00;1.80;;;18.50;76.00;19.40;100512.00;;;;5089670;28;20208;-55
2022/10/23 03:21:38;;;;;;;2.33;1.60;;;18.60;76.10;19.60;100496.00;;;;5088888;28;20222;-54
2022/10/23 03:24:04;;;;;;;1.63;1.53;;;18.60;76.00;19.60;100484.00;;;;5089504;28;20161;-53
2022/10/23 03:26:30;;;;;;;2.13;1.83;;;18.60;75.80;19.60;100481.00;;;;5089007;28;20538;-56
2022/10/23 03:28:56;;;;;;;3.63;1.90;;;18.60;75.80;19.60;100470.00;;;;5089875;28;20216;-53
2022/10/23 03:31:21;;;;;;;4.80;1.90;;;18.60;76.20;19.70;100451.00;;;;5090004;28;20173;-54
2022/10/23 03:33:47;;;;;;;8.00;2.00;;;18.60;76.00;19.60;100456.00;;;;5089279;28;20177;-53
2022/10/23 03:36:13;;;;;;;4.70;1.87;;;18.60;75.90;19.60;100462.00;;;;5089600;28;20176;-54
2022/10/23 03:38:38;;;;;;;5.50;2.30;;;18.60;75.80;19.60;100464.00;;;;5090162;28;20224;-53
2022/10/23 03:41:04;;;;;;;5.83;1.93;;;18.60;75.80;19.60;100451.00;;;;5090495;28;20172;-53
2022/10/23 03:43:30;;;;;;;3.23;1.90;;;18.50;75.70;19.60;100459.00;;;;5090079;28;20172;-53
2022/10/23 03:45:56;;;;;;;6.47;1.90;;;18.60;75.80;19.60;100456.00;;;;5089857;28;20165;-53
2022/10/23 03:48:23;;;;;;;4.87;1.90;;;18.50;75.80;19.60;100451.00;;;;5089592;28;20637;-54
2022/10/23 03:50:49;;;;;;;10.73;2.17;;;18.50;75.90;19.60;100457.00;;;;5089924;28;20256;-54
2022/10/23 03:53:15;;;;;;;3.03;1.80;;;18.50;76.00;19.60;100453.00;;;;5089445;28;20720;-54
2022/10/23 03:55:40;;;;;;;4.53;1.73;;;18.50;76.00;19.60;100457.00;;;;5089402;28;20168;-54
2022/10/23 03:58:06;;;;;;;5.73;2.10;;;18.50;76.00;19.60;100467.00;;;;5088982;28;20165;-54
2022/10/23 04:00:32;;;;;;;4.10;1.87;;;18.50;75.90;19.60;100469.00;;;;5089428;28;20193;-54
2022/10/23 04:02:58;;;;;;;3.47;1.80;;;18.50;75.80;19.60;100464.00;;;;5089306;28;20165;-53
2022/10/23 04:05:23;;;;;;;4.80;1.80;;;18.50;75.80;19.60;100470.00;;;;5089343;28;20253;-53
2022/10/23 04:07:49;;;;;;;2.30;1.83;;;18.50;75.80;19.60;100473.00;;;;5089222;28;20172;-54
2022/10/23 04:10:15;;;;;;;4.57;1.80;;;18.50;75.80;19.60;100430.00;;;;5089142;28;20189;-54
2022/10/23 04:12:40;;;;;;;5.80;2.00;;;18.50;75.80;19.60;100470.00;;;;5089030;28;20200;-54
2022/10/23 04:15:07;;;;;;;2.63;1.63;;;18.50;75.80;19.50;100468.00;;;;5088720;28;20609;-54
2022/10/23 04:17:32;;;;;;;3.33;1.70;;;18.50;75.80;19.60;100459.00;;;;5085793;28;20239;-53
2022/10/23 04:19:58;;;;;;;3.00;1.90;;;18.50;75.80;19.50;100468.00;;;;5076659;28;20618;-54
2022/10/23 04:22:24;;;;;;;5.03;1.90;;;18.40;75.70;19.50;100464.00;;;;5068108;28;20197;-54
2022/10/23 04:24:50;;;;;;;3.53;1.73;;;18.50;75.90;19.50;100476.00;;;;5067980;28;20154;-53
2022/10/23 04:27:15;;;;;;;5.40;2.00;;;18.40;75.80;19.60;100474.00;;;;5067904;28;20162;-54
2022/10/23 04:29:41;;;;;;;3.00;1.90;;;18.50;75.80;19.60;100470.00;;;;5066860;28;20193;-54
2022/10/23 04:32:07;;;;;;;2.80;1.73;;;18.40;75.90;19.60;100473.00;;;;5070337;28;20177;-55
2022/10/23 04:34:33;;;;;;;5.27;1.87;;;18.40;75.80;19.50;100451.00;;;;5071776;28;20173;-53
2022/10/23 04:36:58;;;;;;;3.53;2.20;;;18.40;75.90;19.50;100463.00;;;;5068057;28;20278;-53
2022/10/23 04:39:24;;;;;;;7.00;2.30;;;18.40;75.90;19.50;100461.00;;;;5066764;28;20194;-54
2022/10/23 04:41:50;;;;;;;8.03;2.60;;;18.40;75.80;19.50;100457.00;;;;5066762;28;20572;-53
2022/10/23 04:44:16;;;;;;;8.07;2.83;;;18.40;75.80;19.50;100455.00;;;;5068011;28;20536;-53
2022/10/23 04:46:41;;;;;;;8.40;2.90;;;18.40;75.80;19.50;100452.00;;;;5067684;28;20170;-54
2022/10/23 04:49:07;;;;;;;12.73;3.27;;;18.40;75.80;19.50;100453.00;;;;5067479;28;20201;-53
2022/10/23 04:51:33;;;;;;;17.07;3.33;;;18.40;75.80;19.50;100424.00;;;;5068818;28;20199;-54
2022/10/23 04:53:58;;;;;;;10.37;2.80;;;18.40;75.80;19.50;100440.00;;;;5068227;28;20226;-53
2022/10/23 04:56:24;;;;;;;10.27;3.00;;;18.40;75.70;19.50;100428.00;;;;5068465;28;20279;-54
2022/10/23 04:58:51;;;;;;;10.73;2.93;;;18.40;75.80;19.50;100438.00;;;;5067452;28;20185;-54
2022/10/23 05:01:17;;;;;;;13.73;3.27;;;18.40;75.80;19.50;100443.00;;;;5068733;28;20184;-54
2022/10/23 05:03:43;;;;;;;12.23;3.13;;;18.40;75.80;19.50;100430.00;;;;5068334;28;20170;-54
2022/10/23 05:06:08;;;;;;;11.10;3.07;;;18.40;75.90;19.50;100431.00;;;;5068477;28;20158;-54
2022/10/23 05:08:34;;;;;;;7.83;2.73;;;18.30;75.70;19.50;100434.00;;;;5067672;28;20193;-54
2022/10/23 05:11:00;;;;;;;8.10;2.60;;;18.40;75.80;19.50;100421.00;;;;5070703;28;20173;-54
2022/10/23 05:13:26;;;;;;;5.83;2.63;;;18.40;75.80;19.50;100426.00;;;;5072419;28;20253;-54
2022/10/23 05:15:52;;;;;;;8.43;3.00;;;18.30;75.60;19.50;100416.00;;;;5072807;28;20269;-54
2022/10/23 05:18:39;;;;;;;8.10;2.90;;;18.30;75.50;19.50;100415.00;;;;5072171;28;20169;-54
2022/10/23 05:21:16;;;;;;;6.23;2.53;;;18.30;75.60;19.40;100417.00;;;;5071524;28;20515;-54
2022/10/23 05:23:41;;;;;;;9.07;2.90;;;18.30;75.50;19.40;100414.00;;;;5071266;28;20185;-54
2022/10/23 05:26:07;;;;;;;5.73;2.80;;;18.30;75.50;19.40;100404.00;;;;5071360;28;20192;-54
2022/10/23 05:28:33;;;;;;;9.13;2.80;;;18.30;75.50;19.40;100414.00;;;;5071950;28;20189;-54
2022/10/23 05:31:00;;;;;;;8.00;2.90;;;18.30;75.50;19.40;100411.00;;;;5072546;28;20176;-54
2022/10/23 05:33:26;;;;;;;5.20;2.70;;;18.30;75.50;19.40;100401.00;;;;5071011;28;20162;-54
2022/10/23 05:35:51;;;;;;;6.57;2.50;;;18.30;75.50;19.40;100390.00;;;;5071154;28;20617;-54
2022/10/23 05:38:17;;;;;;;5.17;2.40;;;18.30;75.50;19.40;100380.00;;;;5070617;28;20169;-55
2022/10/23 05:40:43;;;;;;;4.27;2.40;;;18.30;75.50;19.40;100378.00;;;;5070840;28;20205;-54
2022/10/23 05:43:09;;;;;;;5.53;2.50;;;18.30;75.50;19.30;100383.00;;;;5070019;28;20170;-55
2022/10/23 05:45:34;;;;;;;5.97;2.60;;;18.30;75.50;19.40;100395.00;;;;5070421;28;20722;-54
2022/10/23 05:48:00;;;;;;;4.43;2.33;;;18.30;75.50;19.30;100382.00;;;;5072280;28;20246;-54
2022/10/23 05:50:26;;;;;;;5.33;2.40;;;18.30;75.50;19.30;100374.00;;;;5071005;28;20324;-54
2022/10/23 05:52:51;;;;;;;7.87;2.50;;;18.30;75.50;19.30;100379.00;;;;5070513;28;20185;-54
2022/10/23 05:55:17;;;;;;;6.13;2.63;;;18.20;75.40;19.10;100378.00;;;;5071593;28;20169;-54
2022/10/23 05:57:43;;;;;;;4.37;2.30;;;18.20;75.40;19.30;100376.00;;;;5072193;28;20178;-54
2022/10/23 06:00:10;;;;;;;7.40;2.70;;;18.20;75.40;19.30;100375.00;;;;5071928;28;20209;-54
2022/10/23 06:02:35;;;;;;;3.83;2.40;;;18.20;75.40;19.30;100372.00;;;;5072027;28;20212;-54
2022/10/23 06:05:01;;;;;;;6.23;2.57;;;18.20;75.40;19.30;100366.00;;;;5072005;28;20458;-54
2022/10/23 06:07:27;;;;;;;3.00;2.33;;;18.20;75.40;19.30;100370.00;;;;5072701;28;20248;-54
2022/10/23 06:09:53;;;;;;;3.87;2.37;;;18.20;75.40;19.30;100362.00;;;;5071990;28;20350;-54
2022/10/23 06:12:22;;;;;;;5.07;2.37;;;18.20;75.40;19.20;100360.00;;;;5072011;28;20170;-54
2022/10/23 06:14:48;;;;;;;4.00;2.33;;;18.20;75.40;19.30;100360.00;;;;5071675;28;20698;-54
2022/10/23 06:17:14;;;;;;;2.93;2.30;;;18.20;75.40;19.30;100350.00;;;;5072001;28;20193;-54
2022/10/23 06:19:40;;;;;;;3.20;2.30;;;18.20;75.40;19.20;100356.00;;;;5071733;28;20237;-54
2022/10/23 06:22:05;;;;;;;3.87;2.30;;;18.20;75.40;19.30;100345.00;;;;5071443;28;20205;-54
2022/10/23 06:24:31;;;;;;;3.57;2.30;;;18.20;75.40;19.20;100357.00;;;;5071301;28;20332;-54
2022/10/23 06:26:57;;;;;;;5.00;2.10;;;18.20;75.40;19.20;100356.00;;;;5070606;28;20256;-54
2022/10/23 06:29:22;;;;;;;2.40;1.97;;;18.10;75.20;19.20;100364.00;;;;5072075;28;20193;-54
2022/10/23 06:31:48;;;;;;;3.30;2.20;;;18.20;75.20;19.20;100352.00;;;;5072186;28;20173;-54
2022/10/23 06:34:14;;;;;;;3.30;2.40;;;18.10;75.10;19.20;100340.00;;;;5070062;28;20165;-54
2022/10/23 06:36:40;;;;;;;3.63;2.30;;;18.10;75.10;19.20;100341.00;;;;5070313;28;20176;-54
2022/10/23 06:39:06;;;;;;;3.03;2.10;;;18.20;75.20;19.20;100343.00;;;;5069948;28;20709;-54
2022/10/23 06:41:31;;;;;;;4.47;2.30;;;18.10;75.00;19.20;100346.00;;;;5071552;28;20692;-54
2022/10/23 06:43:57;;;;;;;3.60;2.10;;;18.10;75.10;19.20;100343.00;;;;5070006;28;20254;-53
2022/10/23 06:46:23;;;;;;;3.00;2.00;;;18.10;75.00;19.20;100338.00;;;;5071437;28;20525;-53
2022/10/23 06:48:48;;;;;;;2.87;2.30;;;18.10;75.00;19.20;100342.00;;;;5069855;28;20257;-54
2022/10/23 06:51:16;;;;;;;2.47;2.00;;;18.10;75.00;19.20;100354.00;;;;5071446;28;20166;-54
2022/10/23 06:53:42;;;;;;;4.47;2.10;;;18.10;75.00;19.20;100344.00;;;;5071407;28;20177;-54
2022/10/23 06:56:08;;;;;;;3.10;2.33;;;18.10;75.00;19.20;100338.00;;;;5069806;28;20190;-54
2022/10/23 06:58:34;;;;;;;3.20;2.17;;;18.10;75.00;19.20;100342.00;;;;5074677;28;20744;-54
2022/10/23 07:01:01;;;;;;;3.40;2.30;;;18.10;75.00;19.20;100339.00;;;;4948340;28;20189;-54
2022/10/23 07:03:27;;;;;;;2.20;2.00;;;18.10;75.00;19.20;100334.00;;;;5088669;28;20460;-53
2022/10/23 07:05:53;;;;;;;3.80;2.10;;;18.10;75.00;19.20;100341.00;;;;5090588;28;20201;-54
2022/10/23 07:08:18;;;;;;;3.67;2.00;;;18.00;74.90;19.20;100342.00;;;;5089038;28;20169;-54
2022/10/23 07:10:44;;;;;;;5.17;2.20;;;18.10;75.00;19.20;100346.00;;;;5090715;28;20195;-54
2022/10/23 07:13:10;;;;;;;3.77;2.10;;;18.10;75.00;19.10;100336.00;;;;5090624;28;20181;-54
2022/10/23 07:15:37;;;;;;;3.97;2.20;;;18.10;75.00;19.10;100345.00;;;;5090357;28;20185;-55
2022/10/23 07:18:03;;;;;;;3.07;2.20;;;18.10;75.00;19.10;100345.00;;;;5091127;28;20168;-54
2022/10/23 07:20:29;;;;;;;3.60;2.07;;;18.10;75.00;19.10;100345.00;;;;5089469;28;20700;-54
2022/10/23 07:22:55;;;;;;;2.90;2.00;;;18.00;74.90;19.10;100339.00;;;;5091039;28;20165;-54
2022/10/23 07:25:22;;;;;;;2.13;1.83;;;18.10;75.00;19.10;100338.00;;;;5088884;28;20180;-55
2022/10/23 07:27:48;;;;;;;2.90;1.90;;;18.00;74.90;19.10;100345.00;;;;5095079;28;20713;-54
2022/10/23 07:30:14;;;;;;;2.20;1.80;;;18.10;74.90;19.10;100351.00;;;;5097367;28;20197;-54
2022/10/23 07:32:40;;;;;;;3.40;2.00;;;18.00;74.80;19.10;100338.00;;;;5089649;28;20172;-55
2022/10/23 07:35:06;;;;;;;3.30;2.00;;;18.10;74.90;19.10;100340.00;;;;5089549;28;20672;-54
2022/10/23 07:37:31;;;;;;;2.20;2.00;;;18.10;74.80;19.10;100335.00;;;;5090939;28;20684;-54
2022/10/23 07:39:57;;;;;;;1.77;1.63;;;18.10;74.70;19.10;100337.00;;;;5090230;28;20201;-54
2022/10/23 07:42:23;;;;;;;2.83;2.10;;;18.10;74.70;19.10;100324.00;;;;5089971;28;20219;-54
2022/10/23 07:44:49;;;;;;;2.70;2.20;;;18.00;74.50;19.10;100334.00;;;;5088610;28;20248;-54
2022/10/23 07:47:14;;;;;;;1.87;1.70;;;18.10;74.70;19.10;100338.00;;;;5088532;28;20184;-53
2022/10/23 07:49:40;;;;;;;2.23;2.03;;;18.00;74.70;19.10;100321.00;;;;5091195;28;20204;-55
2022/10/23 07:52:06;;;;;;;2.90;2.10;;;18.00;74.70;19.10;100322.00;;;;5089888;28;20184;-54
2022/10/23 07:54:31;;;;;;;2.27;2.03;;;18.00;74.70;19.10;100316.00;;;;5089549;28;20267;-54
2022/10/23 07:57:00;;;;;;;2.90;2.10;;;18.00;74.70;19.10;100306.00;;;;5088863;28;20172;-54
2022/10/23 07:59:26;;;;;;;2.63;2.00;;;18.00;74.80;19.10;100313.00;;;;5089586;28;20224;-54
2022/10/23 08:01:55;;;;;;;3.93;2.20;;;18.00;74.80;19.10;100309.00;;;;5033450;28;20812;-54
2022/10/23 08:04:21;;;;;;;2.33;1.90;;;18.10;74.90;19.10;100305.00;;;;5088503;28;20218;-54
2022/10/23 08:06:47;;;;;;;2.73;2.17;;;18.00;74.80;19.10;100302.00;;;;5089832;28;20181;-54
2022/10/23 08:09:13;;;;;;;5.17;2.10;;;18.00;74.80;19.10;100304.00;;;;5089664;28;20699;-54
2022/10/23 08:11:38;;;;;;;3.50;2.10;;;18.10;74.90;19.10;100310.00;;;;5089348;28;20173;-54
2022/10/23 08:14:04;;;;;;;2.40;1.90;;;18.10;74.90;19.10;100310.00;;;;5089635;28;20523;-54
2022/10/23 08:16:31;;;;;;;3.47;2.20;;;18.00;74.80;19.10;100310.00;;;;5090111;28;20505;-54
2022/10/23 08:18:57;;;;;;;3.00;2.03;;;18.10;75.30;19.10;100315.00;;;;5089660;28;20626;-54
2022/10/23 08:21:23;;;;;;;7.40;2.40;;;18.10;75.20;19.10;100320.00;;;;5090239;28;20276;-54
2022/10/23 08:23:52;;;;;;;7.13;2.43;;;18.10;75.30;19.10;100308.00;;;;5088783;28;20280;-55
2022/10/23 08:26:18;;;;;;;12.57;2.53;;;18.10;75.50;19.10;100302.00;;;;5088390;28;20180;-55
2022/10/23 08:28:43;;;;;;;11.50;2.30;;;18.10;75.50;19.10;100303.00;;;;5092712;28;20189;-55
2022/10/23 08:31:16;;;;;;;13.83;2.93;;;18.10;75.50;19.20;100314.00;;;;5100978;28;20172;-55
2022/10/23 08:33:42;;;;;;;13.47;2.50;;;18.10;75.60;19.20;100307.00;;;;5094292;28;20183;-54
2022/10/23 08:36:25;;;;;;;7.30;2.40;;;18.10;75.60;19.20;100317.00;;;;5089364;28;20177;-54
2022/10/23 08:38:52;;;;;;;17.77;3.07;;;18.10;76.10;19.20;100320.00;;;;5089620;28;20354;-54
2022/10/23 08:41:34;;;;;;;6.77;2.87;;;18.10;76.00;19.20;100331.00;;;;5088151;28;20648;-54
2022/10/23 08:44:12;;;;;;;11.73;2.80;;;18.10;75.90;19.20;100314.00;;;;5088718;28;20149;-54
2022/10/23 08:46:45;;;;;;;8.20;3.03;;;18.20;76.00;19.20;100311.00;;;;5089539;28;20207;-55
2022/10/23 08:49:26;;;;;;;10.23;3.13;;;18.10;75.90;19.20;100316.00;;;;5087556;28;20192;-56
2022/10/23 08:51:54;;;;;;;7.77;2.43;;;18.10;75.90;19.20;100301.00;;;;5087605;28;20184;-54
2022/10/23 08:54:35;;;;;;;7.90;2.60;;;18.10;75.90;19.20;100288.00;;;;5087191;28;20513;-55
2022/10/23 08:57:07;;;;;;;6.17;2.57;;;18.10;75.90;19.20;100309.00;;;;5069978;28;20619;-55
2022/10/23 08:59:39;;;;;;;5.40;2.50;;;18.20;76.00;19.20;100287.00;;;;5052227;28;20198;-54
2022/10/23 09:02:27;;;;;;;5.27;2.43;;;18.10;75.90;19.20;100266.00;;;;4950152;28;20249;-54
2022/10/23 09:04:54;;;;;;;8.40;2.70;;;18.10;76.00;19.20;100289.00;;;;5087993;28;20171;-55
2022/10/23 09:07:34;;;;;;;5.93;2.80;;;18.10;76.00;19.20;100288.00;;;;5088740;28;20171;-54
2022/10/23 09:10:37;;;;;;;8.10;2.67;;;18.10;75.90;19.20;100277.00;;;;5088866;28;20188;-55
2022/10/23 09:13:46;;;;;;;5.80;2.43;;;18.20;76.10;19.20;100266.00;;;;5089436;28;20538;-55
2022/10/23 09:16:32;;;;;;;3.97;2.10;;;18.20;76.00;19.20;100264.00;;;;5088575;28;20680;-54
2022/10/23 09:18:58;;;;;;;7.23;2.30;;;18.10;76.00;19.20;100259.00;;;;5070903;28;20608;-54
2022/10/23 09:21:27;;;;;;;6.23;2.73;;;18.10;76.00;19.20;100259.00;;;;5087627;28;20183;-55
2022/10/23 09:23:53;;;;;;;4.70;2.30;;;18.10;76.00;19.20;100254.00;;;;5088576;28;20179;-54
2022/10/23 09:26:18;;;;;;;3.83;2.17;;;18.10;76.20;19.20;100250.00;;;;5089058;28;20590;-55
2022/10/23 09:28:55;;;;;;;4.40;2.20;;;18.20;76.30;19.20;100251.00;;;;5088541;28;20676;-55
2022/10/23 09:31:21;;;;;;;5.83;2.10;;;18.10;76.30;19.20;100249.00;;;;5071465;28;20195;-55
2022/10/23 09:33:58;;;;;;;5.93;2.10;;;18.10;76.20;19.30;100245.00;;;;5088614;28;20172;-55
2022/10/23 09:36:26;;;;;;;3.17;2.23;;;18.10;76.30;19.30;100232.00;;;;5088837;28;20687;-55
2022/10/23 09:38:53;;;;;;;4.13;2.30;;;18.10;76.40;19.30;100220.00;;;;5088668;28;20212;-55
2022/10/23 09:41:42;;;;;;;3.27;2.17;;;18.20;76.50;19.30;100227.00;;;;5088634;28;20165;-55
2022/10/23 09:44:20;;;;;;;4.43;2.37;;;18.20;76.50;19.30;100227.00;;;;5087280;28;20173;-55
2022/10/23 09:47:08;;;;;;;3.13;2.10;;;18.20;76.60;19.30;100234.00;;;;5088520;28;20613;-55
2022/10/23 09:49:33;;;;;;;4.83;2.30;;;18.20;76.60;19.30;100240.00;;;;5088372;28;20569;-55
2022/10/23 09:52:03;;;;;;;4.57;1.90;;;18.20;76.70;19.30;100234.00;;;;5088351;28;20170;-54
2022/10/23 09:54:57;;;;;;;5.17;2.17;;;18.20;76.70;19.30;100234.00;;;;5087092;28;20692;-55
2022/10/23 09:57:42;;;;;;;3.03;1.87;;;18.20;76.70;19.30;100223.00;;;;5089261;28;20196;-55
2022/10/23 10:00:25;;;;;;;3.50;2.07;;;18.20;76.70;19.30;100226.00;;;;5090839;28;20207;-54
2022/10/23 10:03:04;;;;;;;2.97;1.80;;;18.20;76.90;19.30;100209.00;;;;5093120;28;20236;-54
2022/10/23 10:05:35;;;;;;;3.60;2.10;;;18.20;76.90;19.30;100220.00;;;;5091325;28;20255;-54
2022/10/23 10:08:19;;;;;;;3.47;2.07;;;18.30;77.00;19.30;100229.00;;;;5091349;28;20157;-54
2022/10/23 10:10:59;;;;;;;2.40;2.00;;;18.30;77.10;19.30;100210.00;;;;5092689;28;20184;-54
2022/10/23 10:13:35;;;;;;;4.03;2.27;;;18.30;77.10;19.30;100233.00;;;;5076034;28;20637;-55
2022/10/23 10:16:22;;;;;;;2.57;2.30;;;18.30;77.00;19.30;100227.00;;;;5092516;28;20426;-54
2022/10/23 10:19:35;;;;;;;2.10;1.90;;;18.20;77.10;19.30;100207.00;;;;5092347;28;20206;-55
2022/10/23 10:22:25;;;;;;;4.90;2.13;;;18.30;77.20;19.30;100180.00;;;;5091077;28;20194;-54
2022/10/23 10:24:59;;;;;;;3.23;2.10;;;18.30;77.20;19.30;100174.00;;;;5090659;28;20622;-54
2022/10/23 10:27:44;;;;;;;2.30;2.00;;;18.30;77.20;19.30;100180.00;;;;5087208;28;20167;-54
2022/10/23 10:30:20;;;;;;;2.83;2.10;;;18.30;77.30;19.40;100190.00;;;;5102995;28;20193;-55
2022/10/23 10:32:57;;;;;;;2.20;2.00;;;18.30;77.30;19.40;100173.00;;;;5074638;28;20171;-55
2022/10/23 10:35:39;;;;;;;4.40;2.10;;;18.30;77.20;19.40;100179.00;;;;5075204;28;20549;-55
2022/10/23 10:38:21;;;;;;;3.03;2.10;;;18.30;77.30;19.40;100185.00;;;;5091226;28;20266;-55
2022/10/23 10:41:07;;;;;;;3.03;1.80;;;18.30;77.40;19.40;100185.00;;;;5075668;28;20191;-55
2022/10/23 10:43:53;;;;;;;2.90;2.20;;;18.40;77.60;19.40;100189.00;;;;5091686;28;20190;-55
2022/10/23 10:46:33;;;;;;;2.57;2.00;;;18.40;77.60;19.40;100168.00;;;;5080931;28;20785;-55
2022/10/23 10:49:28;;;;;;;2.10;1.90;;;18.40;77.50;19.40;100154.00;;;;5092122;28;20771;-55
2022/10/23 10:52:02;;;;;;;1.97;1.80;;;18.40;77.60;19.40;100146.00;;;;5073513;28;20855;-56
2022/10/23 10:54:47;;;;;;;2.50;1.90;;;18.40;77.70;19.50;100140.00;;;;5092376;28;20589;-55
2022/10/23 10:57:26;;;;;;;2.70;1.90;;;18.40;77.60;19.50;100128.00;;;;5091112;28;20168;-55
2022/10/23 10:59:52;;;;;;;2.60;1.90;;;18.40;77.70;19.50;100125.00;;;;5075141;28;20287;-54
2022/10/23 11:02:41;;;;;;;2.90;2.00;;;18.40;77.60;19.50;100121.00;;;;5074508;28;20594;-55
2022/10/23 11:05:22;;;;;;;4.77;1.90;;;18.40;77.70;19.50;100114.00;;;;5091047;28;20676;-55
2022/10/23 11:07:59;;;;;;;3.30;2.10;;;18.50;77.70;19.50;100102.00;;;;5028721;28;20386;-53